Time;durP1;ratioP1;P1;durP2;ratioP2;P2;SDS_P1;SDS_P2;PMS_P1;PMS_P2;Temp;Humidity;BMP_temperature;BMP_pressure;BME280_temperature;BME280_humidity;BME280_pressure;Samples;Min_cycle;Max_cycle;Signal;HPM_P1;HPM_P2
2022/11/26 00:00:40;;;;;;;;;;;17.10;53.30;;;;;;5087784;28;19925;-70
2022/11/26 00:03:07;;;;;;;;;;;17.00;53.30;;;;;;5088120;28;20016;-73
2022/11/26 00:05:32;;;;;;;;;;;17.10;53.40;;;;;;5087910;28;20199;-72
2022/11/26 00:07:59;;;;;;;;;;;17.10;53.50;;;;;;5087742;28;20037;-73
2022/11/26 00:10:26;;;;;;;;;;;17.00;53.50;;;;;;5088099;28;20020;-72
2022/11/26 00:12:51;;;;;;;;;;;17.00;53.60;;;;;;5088014;28;20212;-72
2022/11/26 00:17:58;;;;;;;;;;;16.90;53.60;;;;;;5127517;27;1862379;-73
2022/11/26 00:20:27;;;;;;;;;;;17.00;53.70;;;;;;5174414;27;19918;-73
2022/11/26 00:22:57;;;;;;;;;;;16.90;53.70;;;;;;5174064;27;19919;-73
2022/11/26 00:25:24;;;;;;;;;;;16.90;53.80;;;;;;5174710;27;19926;-73
2022/11/26 00:27:51;;;;;;;;;;;16.90;53.80;;;;;;5174597;27;19922;-73
2022/11/26 00:30:19;;;;;;;;;;;16.90;53.80;;;;;;5174586;27;19918;-73
2022/11/26 00:32:45;;;;;;;;;;;16.80;53.80;;;;;;5174355;27;19962;-73
2022/11/26 00:35:10;;;;;;;;;;;16.80;53.80;;;;;;5174164;27;20086;-73
2022/11/26 00:37:46;;;;;;;;;;;16.80;53.90;;;;;;5174057;27;19923;-73
2022/11/26 00:40:21;;;;;;;;;;;16.80;53.90;;;;;;5174054;27;19925;-73
2022/11/26 00:42:47;;;;;;;;;;;16.70;53.80;;;;;;5174296;27;20371;-73
2022/11/26 00:45:15;;;;;;;;;;;16.90;53.90;;;;;;5159649;27;19919;-73
2022/11/26 00:47:40;;;;;;;;;;;16.80;53.90;;;;;;5152730;27;20165;-73
2022/11/26 00:50:07;;;;;;;;;;;16.80;53.90;;;;;;5152985;27;19942;-73
2022/11/26 00:52:33;;;;;;;;;;;16.70;53.80;;;;;;5171484;27;20067;-72
2022/11/26 00:55:02;;;;;;;;;;;16.80;53.90;;;;;;5171475;27;20413;-68
2022/11/26 00:57:27;;;;;;;;;;;16.70;53.90;;;;;;5152738;27;20084;-73
2022/11/26 00:59:53;;;;;;;;;;;16.70;53.90;;;;;;5171323;27;19926;-72
2022/11/26 01:02:18;;;;;;;;;;;16.70;53.90;;;;;;5171271;27;19970;-73
2022/11/26 01:04:44;;;;;;;;;;;16.70;53.90;;;;;;5152522;27;19919;-73
2022/11/26 01:07:10;;;;;;;;;;;16.70;53.90;;;;;;5171483;27;19919;-69
2022/11/26 01:09:35;;;;;;;;;;;16.70;53.90;;;;;;5171285;27;20410;-72
2022/11/26 01:12:01;;;;;;;;;;;16.70;53.90;;;;;;5171240;27;19979;-72
2022/11/26 01:14:26;;;;;;;;;;;16.60;53.90;;;;;;5152772;27;20350;-73
2022/11/26 01:16:53;;;;;;;;;;;16.70;53.90;;;;;;5170567;27;19931;-73
2022/11/26 01:19:19;;;;;;;;;;;16.60;53.90;;;;;;5170841;27;20453;-73
2022/11/26 01:21:44;;;;;;;;;;;16.60;53.90;;;;;;5152131;27;20010;-73
2022/11/26 01:24:10;;;;;;;;;;;16.60;53.90;;;;;;5170172;27;19919;-73
2022/11/26 01:26:38;;;;;;;;;;;16.60;53.90;;;;;;5151872;27;20289;-73
2022/11/26 01:29:04;;;;;;;;;;;16.60;53.90;;;;;;5140157;27;19919;-73
2022/11/26 01:31:29;;;;;;;;;;;16.50;53.90;;;;;;5156809;27;19926;-73
2022/11/26 01:33:55;;;;;;;;;;;16.60;53.90;;;;;;5138487;27;20014;-73
2022/11/26 01:39:04;;;;;;;;;;;16.50;53.90;;;;;;5089800;28;20272;-72
2022/11/26 01:41:50;;;;;;;;;;;16.50;53.90;;;;;;5088412;28;19947;-73
2022/11/26 01:44:18;;;;;;;;;;;16.50;53.90;;;;;;5089483;28;20329;-74
2022/11/26 01:46:43;;;;;;;;;;;16.50;54.00;;;;;;5088786;28;19924;-69
2022/11/26 01:49:14;;;;;;;;;;;16.40;53.90;;;;;;5088460;28;20276;-73
2022/11/26 01:51:39;;;;;;;;;;;16.40;53.90;;;;;;5089691;28;19924;-73
2022/11/26 01:54:06;;;;;;;;;;;16.50;54.00;;;;;;5088679;28;19920;-73
2022/11/26 02:01:56;;;;;;;;;;;16.40;53.90;;;;;;5122688;27;1998383;-73
2022/11/26 02:04:25;;;;;;;;;;;16.40;54.00;;;;;;5157985;27;19919;-73
2022/11/26 02:06:52;;;;;;;;;;;16.40;54.00;;;;;;5172471;27;20267;-73
2022/11/26 02:09:17;;;;;;;;;;;16.40;54.00;;;;;;5153940;27;19948;-73
2022/11/26 02:11:43;;;;;;;;;;;16.40;54.00;;;;;;5172057;27;19919;-72
2022/11/26 02:14:13;;;;;;;;;;;16.40;54.00;;;;;;5136426;27;19919;-73
2022/11/26 02:22:18;;;;;;;;;;;16.30;54.00;;;;;;5110046;27;19919;-73
2022/11/26 02:30:10;;;;;;;;;;;16.30;54.10;;;;;;5109531;27;19937;-73
2022/11/26 02:35:36;;;;;;;;;;;16.30;54.10;;;;;;5089979;28;20088;-73
2022/11/26 02:38:04;;;;;;;;;;;16.30;54.00;;;;;;5089819;28;20288;-73
2022/11/26 02:40:29;;;;;;;;;;;16.30;54.00;;;;;;5088580;28;19921;-73
2022/11/26 02:42:55;;;;;;;;;;;16.30;54.00;;;;;;5088204;28;20043;-73
2022/11/26 02:45:23;;;;;;;;;;;16.30;54.00;;;;;;5105634;28;19920;-69
2022/11/26 02:47:51;;;;;;;;;;;16.30;54.10;;;;;;5089635;28;19924;-73
2022/11/26 02:50:19;;;;;;;;;;;16.30;54.10;;;;;;5088660;28;20016;-73
2022/11/26 02:52:47;;;;;;;;;;;16.20;54.00;;;;;;5088297;28;20384;-73
2022/11/26 02:55:14;;;;;;;;;;;16.20;54.00;;;;;;5087529;28;19931;-73
2022/11/26 02:57:44;;;;;;;;;;;16.20;54.00;;;;;;5087814;28;19920;-73
2022/11/26 03:00:09;;;;;;;;;;;16.20;54.00;;;;;;5089351;28;19920;-72
2022/11/26 03:02:39;;;;;;;;;;;16.20;54.00;;;;;;5088988;28;20475;-73
2022/11/26 03:05:05;;;;;;;;;;;16.20;54.00;;;;;;5087932;28;19920;-72
2022/11/26 03:07:31;;;;;;;;;;;16.20;54.00;;;;;;5088047;28;20019;-72
2022/11/26 03:09:57;;;;;;;;;;;16.20;54.00;;;;;;5087933;28;20054;-72
2022/11/26 03:12:23;;;;;;;;;;;16.20;54.10;;;;;;5088139;28;19963;-69
2022/11/26 03:14:49;;;;;;;;;;;16.20;54.10;;;;;;5089086;28;20435;-73
2022/11/26 03:17:15;;;;;;;;;;;16.10;54.10;;;;;;5087739;28;20378;-72
2022/11/26 03:19:41;;;;;;;;;;;16.10;54.10;;;;;;5088110;28;19966;-69
2022/11/26 03:22:06;;;;;;;;;;;16.10;54.10;;;;;;5088942;28;20393;-74
2022/11/26 03:24:32;;;;;;;;;;;16.10;54.10;;;;;;5086620;28;20022;-73
2022/11/26 03:26:58;;;;;;;;;;;16.10;54.10;;;;;;5087663;28;19974;-73
2022/11/26 03:29:23;;;;;;;;;;;16.10;54.10;;;;;;5089092;28;20242;-73
2022/11/26 03:31:49;;;;;;;;;;;16.10;54.10;;;;;;5087933;28;20007;-73
2022/11/26 03:34:14;;;;;;;;;;;16.10;54.10;;;;;;5098274;28;20291;-73
2022/11/26 03:36:40;;;;;;;;;;;16.10;54.10;;;;;;5090823;28;19920;-73
2022/11/26 03:39:05;;;;;;;;;;;16.10;54.10;;;;;;5090748;28;19920;-74
2022/11/26 03:41:31;;;;;;;;;;;16.10;54.10;;;;;;5091033;28;19926;-74
2022/11/26 03:43:56;;;;;;;;;;;16.00;54.00;;;;;;5090539;28;20018;-73
2022/11/26 03:46:22;;;;;;;;;;;16.00;54.10;;;;;;5079791;28;20007;-73
2022/11/26 03:48:47;;;;;;;;;;;16.00;54.10;;;;;;5095242;28;19924;-73
2022/11/26 03:51:13;;;;;;;;;;;16.00;54.10;;;;;;5077536;28;19938;-73
2022/11/26 03:53:38;;;;;;;;;;;16.00;54.10;;;;;;5076911;28;19978;-73
2022/11/26 03:56:04;;;;;;;;;;;16.00;54.80;;;;;;5077007;28;19967;-73
2022/11/26 03:58:33;;;;;;;;;;;16.00;54.10;;;;;;5094979;28;20014;-73
2022/11/26 04:00:59;;;;;;;;;;;15.90;54.10;;;;;;5076334;28;20417;-74
2022/11/26 04:03:24;;;;;;;;;;;16.00;54.10;;;;;;5076510;28;19924;-73
2022/11/26 04:05:50;;;;;;;;;;;16.00;54.10;;;;;;5076637;28;19959;-74
2022/11/26 04:08:15;;;;;;;;;;;16.00;54.10;;;;;;5076820;28;19920;-73
2022/11/26 04:10:41;;;;;;;;;;;16.00;54.10;;;;;;5076662;28;19973;-73
2022/11/26 04:13:06;;;;;;;;;;;15.90;54.10;;;;;;5094683;28;19920;-73
2022/11/26 04:15:32;;;;;;;;;;;16.00;54.10;;;;;;5076636;28;19926;-74
2022/11/26 04:17:58;;;;;;;;;;;15.90;54.10;;;;;;5075888;28;19955;-73
2022/11/26 04:20:23;;;;;;;;;;;16.00;54.10;;;;;;5075510;28;19924;-73
2022/11/26 04:22:49;;;;;;;;;;;15.90;54.10;;;;;;5076094;28;20014;-74
2022/11/26 04:25:14;;;;;;;;;;;15.90;54.10;;;;;;5094392;28;19956;-73
2022/11/26 04:27:40;;;;;;;;;;;15.90;54.10;;;;;;5076773;28;20007;-74
2022/11/26 04:30:06;;;;;;;;;;;15.90;54.10;;;;;;5094380;28;19981;-74
2022/11/26 04:32:32;;;;;;;;;;;15.90;54.10;;;;;;5076377;28;20015;-69
2022/11/26 04:34:57;;;;;;;;;;;15.90;54.10;;;;;;5072481;28;20067;-73
2022/11/26 04:37:23;;;;;;;;;;;15.90;54.20;;;;;;5073158;28;20307;-69
2022/11/26 04:39:49;;;;;;;;;;;15.90;54.10;;;;;;5073066;28;19925;-73
2022/11/26 04:42:14;;;;;;;;;;;15.90;54.10;;;;;;5073113;28;19927;-75
2022/11/26 04:44:40;;;;;;;;;;;15.90;54.20;;;;;;5073812;28;20411;-74
2022/11/26 04:47:05;;;;;;;;;;;15.90;54.10;;;;;;5072063;28;20422;-69
2022/11/26 04:49:31;;;;;;;;;;;15.80;54.10;;;;;;5073885;28;20372;-73
2022/11/26 04:51:56;;;;;;;;;;;15.80;54.10;;;;;;5072441;28;20007;-73
2022/11/26 04:54:22;;;;;;;;;;;15.80;54.10;;;;;;5073838;28;20061;-74
2022/11/26 04:56:48;;;;;;;;;;;15.80;54.20;;;;;;5071705;28;20306;-73
2022/11/26 04:59:14;;;;;;;;;;;15.80;54.20;;;;;;5072503;28;19925;-73
2022/11/26 05:01:39;;;;;;;;;;;15.80;54.20;;;;;;5072247;28;20249;-69
2022/11/26 05:04:05;;;;;;;;;;;15.80;54.20;;;;;;5073593;28;19920;-74
2022/11/26 05:06:30;;;;;;;;;;;15.80;54.20;;;;;;5073535;28;20028;-74
2022/11/26 05:08:56;;;;;;;;;;;15.80;54.10;;;;;;5072235;28;19921;-73
2022/11/26 05:11:21;;;;;;;;;;;15.80;54.20;;;;;;5072380;28;20030;-73
2022/11/26 05:13:47;;;;;;;;;;;15.80;54.20;;;;;;5073927;28;19964;-73
2022/11/26 05:16:12;;;;;;;;;;;15.70;54.20;;;;;;5073287;28;20418;-74
2022/11/26 05:18:38;;;;;;;;;;;15.80;54.20;;;;;;5072039;28;20394;-73
2022/11/26 05:21:04;;;;;;;;;;;15.70;54.20;;;;;;5072260;28;19924;-72
2022/11/26 05:23:29;;;;;;;;;;;15.70;54.10;;;;;;5072099;28;19920;-74
2022/11/26 05:25:55;;;;;;;;;;;15.70;54.20;;;;;;5072281;28;19921;-73
2022/11/26 05:28:20;;;;;;;;;;;15.70;54.20;;;;;;5073096;28;19920;-69
2022/11/26 05:30:46;;;;;;;;;;;15.70;54.20;;;;;;5071745;28;19927;-74
2022/11/26 05:33:11;;;;;;;;;;;15.70;54.20;;;;;;5071958;28;19920;-69
2022/11/26 05:35:37;;;;;;;;;;;15.70;54.20;;;;;;5071396;28;20291;-74
2022/11/26 05:38:03;;;;;;;;;;;15.70;54.10;;;;;;5073044;28;19921;-73
2022/11/26 05:40:28;;;;;;;;;;;15.70;54.10;;;;;;5071681;28;19962;-74
2022/11/26 05:42:54;;;;;;;;;;;15.70;54.10;;;;;;5072879;28;20191;-69
2022/11/26 05:45:19;;;;;;;;;;;15.70;54.20;;;;;;5071324;28;20388;-73
2022/11/26 05:47:45;;;;;;;;;;;15.60;54.10;;;;;;5071619;28;20011;-73
2022/11/26 05:50:10;;;;;;;;;;;15.60;54.10;;;;;;5071488;28;19920;-72
2022/11/26 05:52:36;;;;;;;;;;;15.60;54.10;;;;;;5071710;28;19920;-74
2022/11/26 05:55:01;;;;;;;;;;;15.60;54.10;;;;;;5071355;28;19938;-73
2022/11/26 05:57:27;;;;;;;;;;;15.60;54.10;;;;;;5071598;28;19921;-73
2022/11/26 05:59:52;;;;;;;;;;;15.60;54.20;;;;;;5071288;28;20368;-73
2022/11/26 06:02:18;;;;;;;;;;;15.60;54.10;;;;;;5070643;28;19924;-73
2022/11/26 06:04:43;;;;;;;;;;;15.60;54.20;;;;;;5072457;28;20429;-74
2022/11/26 06:07:09;;;;;;;;;;;15.60;54.10;;;;;;5072495;28;20437;-74
2022/11/26 06:09:35;;;;;;;;;;;15.60;54.20;;;;;;5072309;28;20014;-69
2022/11/26 06:12:01;;;;;;;;;;;15.50;54.10;;;;;;5072532;28;19920;-73
2022/11/26 06:14:26;;;;;;;;;;;15.60;54.10;;;;;;5072291;28;20001;-73
2022/11/26 06:16:52;;;;;;;;;;;15.60;54.20;;;;;;5071358;28;19995;-74
2022/11/26 06:19:17;;;;;;;;;;;15.50;54.10;;;;;;5071319;28;19927;-70
2022/11/26 06:21:43;;;;;;;;;;;15.60;54.10;;;;;;5071094;28;19989;-69
2022/11/26 06:24:09;;;;;;;;;;;15.60;54.10;;;;;;5072184;28;19920;-70
2022/11/26 06:26:35;;;;;;;;;;;15.60;54.20;;;;;;5072201;28;19921;-70
2022/11/26 06:29:00;;;;;;;;;;;15.50;54.00;;;;;;5072159;28;19920;-69
2022/11/26 06:31:26;;;;;;;;;;;15.60;54.10;;;;;;5071269;28;20392;-73
2022/11/26 06:33:52;;;;;;;;;;;15.50;54.00;;;;;;5072919;28;19962;-69
2022/11/26 06:36:17;;;;;;;;;;;15.50;54.10;;;;;;5074574;28;19928;-70
2022/11/26 06:38:43;;;;;;;;;;;15.50;54.10;;;;;;5074424;28;20279;-70
2022/11/26 06:41:08;;;;;;;;;;;15.50;54.00;;;;;;5074158;28;19928;-69
2022/11/26 06:43:34;;;;;;;;;;;15.50;54.10;;;;;;5092187;28;20003;-70
2022/11/26 06:46:01;;;;;;;;;;;15.50;54.10;;;;;;5073500;28;19966;-69
2022/11/26 06:48:26;;;;;;;;;;;15.50;54.10;;;;;;5073993;28;19927;-74
2022/11/26 06:50:52;;;;;;;;;;;15.50;54.10;;;;;;5092187;28;19924;-70
2022/11/26 06:53:17;;;;;;;;;;;15.50;54.10;;;;;;5074100;28;19920;-73
2022/11/26 06:55:43;;;;;;;;;;;15.50;54.00;;;;;;5074465;28;19937;-70
2022/11/26 06:58:09;;;;;;;;;;;15.40;54.00;;;;;;5092161;28;19924;-70
2022/11/26 07:00:34;;;;;;;;;;;15.40;54.00;;;;;;5074263;28;19927;-73
2022/11/26 07:03:00;;;;;;;;;;;15.50;54.00;;;;;;5092124;28;19928;-70
2022/11/26 07:05:25;;;;;;;;;;;15.40;54.00;;;;;;5091781;28;19920;-74
2022/11/26 07:07:51;;;;;;;;;;;15.40;54.00;;;;;;5073870;28;19970;-74
2022/11/26 07:10:17;;;;;;;;;;;15.40;54.00;;;;;;5074174;28;19924;-70
2022/11/26 07:12:42;;;;;;;;;;;15.40;54.00;;;;;;5092047;28;19920;-75
2022/11/26 07:15:08;;;;;;;;;;;15.50;53.90;;;;;;5091896;28;20342;-70
2022/11/26 07:17:33;;;;;;;;;;;15.70;53.50;;;;;;5073895;28;19931;-73
2022/11/26 07:19:59;;;;;;;;;;;15.80;53.10;;;;;;5074054;28;19920;-74
2022/11/26 07:22:24;;;;;;;;;;;15.90;52.80;;;;;;5076853;28;20291;-74
2022/11/26 07:24:50;;;;;;;;;;;15.90;52.50;;;;;;5095472;28;19924;-73
2022/11/26 07:27:16;;;;;;;;;;;16.00;52.40;;;;;;5095705;28;20199;-74
2022/11/26 07:29:41;;;;;;;;;;;16.00;52.10;;;;;;5095711;28;19966;-70
2022/11/26 07:32:07;;;;;;;;;;;16.10;52.00;;;;;;5077637;28;19956;-74
2022/11/26 07:34:32;;;;;;;;;;;16.10;51.80;;;;;;5073872;28;20026;-73
2022/11/26 07:36:58;;;;;;;;;;;16.20;51.80;;;;;;5075104;28;20303;-70
2022/11/26 07:39:23;;;;;;;;;;;16.20;51.60;;;;;;5056694;28;19928;-73
2022/11/26 07:41:49;;;;;;;;;;;16.20;51.40;;;;;;5073774;28;19920;-74
2022/11/26 07:44:14;;;;;;;;;;;16.20;51.40;;;;;;5073995;28;19920;-74
2022/11/26 07:46:40;;;;;;;;;;;16.20;51.30;;;;;;5074398;28;19920;-74
2022/11/26 07:49:06;;;;;;;;;;;16.00;51.10;;;;;;5073560;28;20019;-70
2022/11/26 07:51:32;;;;;;;;;;;16.30;51.20;;;;;;5074956;28;19920;-73
2022/11/26 07:53:58;;;;;;;;;;;16.30;51.10;;;;;;5073826;28;19982;-69
2022/11/26 07:56:24;;;;;;;;;;;16.30;51.00;;;;;;5073634;28;19924;-73
2022/11/26 07:58:50;;;;;;;;;;;16.30;51.00;;;;;;5074918;28;19927;-70
2022/11/26 08:01:17;;;;;;;;;;;16.30;50.90;;;;;;5075274;28;19921;-70
2022/11/26 08:03:44;;;;;;;;;;;16.30;51.00;;;;;;5074826;28;19966;-74
2022/11/26 08:06:12;;;;;;;;;;;15.90;50.70;;;;;;5073289;28;20007;-74
2022/11/26 08:08:38;;;;;;;;;;;16.30;50.90;;;;;;5073300;28;19920;-74
2022/11/26 08:11:09;;;;;;;;;;;16.30;50.90;;;;;;5074657;28;19931;-73
2022/11/26 08:13:34;;;;;;;;;;;16.30;50.80;;;;;;5074502;28;19991;-74
2022/11/26 08:16:00;;;;;;;;;;;16.30;50.80;;;;;;5074729;28;19951;-70
2022/11/26 08:18:25;;;;;;;;;;;16.30;50.80;;;;;;5073506;28;20411;-73
2022/11/26 08:20:55;;;;;;;;;;;16.30;50.80;;;;;;5073240;28;19928;-73
2022/11/26 08:23:20;;;;;;;;;;;16.30;50.80;;;;;;5074332;28;19935;-74
2022/11/26 08:25:46;;;;;;;;;;;16.30;50.70;;;;;;5073370;28;19999;-73
2022/11/26 08:28:11;;;;;;;;;;;16.30;50.70;;;;;;5074339;28;20356;-74
2022/11/26 08:30:37;;;;;;;;;;;16.30;50.70;;;;;;5073103;28;19924;-72
2022/11/26 08:33:02;;;;;;;;;;;16.30;50.70;;;;;;5072828;28;19924;-73
2022/11/26 08:35:28;;;;;;;;;;;16.30;50.70;;;;;;5089880;28;19924;-68
2022/11/26 08:37:53;;;;;;;;;;;16.30;50.70;;;;;;5094215;28;20367;-68
2022/11/26 08:40:19;;;;;;;;;;;16.30;50.70;;;;;;5094431;28;19927;-68
2022/11/26 08:42:44;;;;;;;;;;;16.30;50.70;;;;;;5076090;28;19920;-73
2022/11/26 08:45:10;;;;;;;;;;;16.30;50.70;;;;;;5074740;28;19924;-73
2022/11/26 08:47:36;;;;;;;;;;;16.30;50.70;;;;;;5075747;28;19926;-68
2022/11/26 08:50:02;;;;;;;;;;;16.30;50.70;;;;;;5094030;28;19920;-69
2022/11/26 08:52:27;;;;;;;;;;;16.30;50.70;;;;;;5094046;28;19960;-68
2022/11/26 08:54:53;;;;;;;;;;;16.30;50.70;;;;;;5075871;28;20014;-67
2022/11/26 08:57:18;;;;;;;;;;;16.30;50.70;;;;;;5075904;28;20407;-73
2022/11/26 08:59:44;;;;;;;;;;;16.30;50.70;;;;;;5094020;28;19979;-72
2022/11/26 09:02:10;;;;;;;;;;;16.30;50.60;;;;;;5076085;28;20437;-72
2022/11/26 09:04:36;;;;;;;;;;;16.30;50.70;;;;;;5074871;28;20413;-73
2022/11/26 09:07:01;;;;;;;;;;;16.30;50.70;;;;;;5093348;28;20018;-72
2022/11/26 09:09:27;;;;;;;;;;;16.30;50.60;;;;;;5093657;28;19967;-68
2022/11/26 09:11:57;;;;;;;;;;;16.30;50.70;;;;;;5093665;28;19920;-67
2022/11/26 09:14:24;;;;;;;;;;;16.30;50.70;;;;;;5075555;28;19950;-72
2022/11/26 09:16:50;;;;;;;;;;;16.30;50.60;;;;;;5075519;28;19920;-72
2022/11/26 09:19:16;;;;;;;;;;;16.20;50.60;;;;;;5092289;28;19927;-71
2022/11/26 09:21:41;;;;;;;;;;;16.20;50.70;;;;;;5075453;28;20022;-71
2022/11/26 09:24:07;;;;;;;;;;;16.20;50.70;;;;;;5075415;28;19928;-71
2022/11/26 09:26:33;;;;;;;;;;;16.20;50.80;;;;;;5075448;28;19920;-72
2022/11/26 09:28:59;;;;;;;;;;;16.20;50.80;;;;;;5092271;28;19920;-71
2022/11/26 09:31:24;;;;;;;;;;;16.10;50.80;;;;;;5093446;28;20416;-69
2022/11/26 09:33:50;;;;;;;;;;;16.20;50.90;;;;;;5074807;28;19947;-71
2022/11/26 09:36:16;;;;;;;;;;;16.10;50.90;;;;;;5093276;28;19920;-72
2022/11/26 09:38:42;;;;;;;;;;;16.10;51.00;;;;;;5093155;28;19920;-71
2022/11/26 09:41:27;;;;;;;;;;;16.20;51.10;;;;;;5075198;28;19934;-71
2022/11/26 09:44:06;;;;;;;;;;;16.10;51.10;;;;;;5091118;28;19920;-71
2022/11/26 09:49:18;;;;;;;;;;;16.10;51.20;;;;;;5125838;27;1915608;-71
2022/11/26 09:51:47;;;;;;;;;;;16.00;51.10;;;;;;5174893;27;20350;-68
2022/11/26 09:54:15;;;;;;;;;;;16.00;51.10;;;;;;5174666;27;19926;-70
2022/11/26 09:56:41;;;;;;;;;;;16.00;51.20;;;;;;5174229;27;20055;-68
2022/11/26 09:59:10;;;;;;;;;;;16.00;51.20;;;;;;5193040;27;20013;-71
2022/11/26 10:01:36;;;;;;;;;;;16.00;51.40;;;;;;5172150;27;19926;-71
2022/11/26 10:04:05;;;;;;;;;;;15.90;51.30;;;;;;5172582;27;19927;-71
2022/11/26 10:12:30;;;;;;;;;;;15.90;51.40;;;;;;5110227;27;19912;-71
2022/11/26 10:15:02;;;;;;;;;;;15.80;51.40;;;;;;5091717;28;19966;-71
2022/11/26 10:17:48;;;;;;;;;;;15.90;52.20;;;;;;5091778;28;20459;-72
2022/11/26 10:22:57;;;;;;;;;;;15.80;51.50;;;;;;5131231;27;1871478;-70
2022/11/26 10:25:25;;;;;;;;;;;15.80;51.50;;;;;;5187159;27;19983;-77
2022/11/26 10:27:53;;;;;;;;;;;15.90;51.60;;;;;;5151947;27;19927;-71
2022/11/26 10:30:20;;;;;;;;;;;15.90;52.00;;;;;;5152574;27;19964;-70
2022/11/26 10:32:46;;;;;;;;;;;16.00;52.10;;;;;;5169773;27;19922;-72
2022/11/26 10:35:28;;;;;;;;;;;16.30;51.80;;;;;;5152349;27;19926;-71
2022/11/26 10:37:54;;;;;;;;;;;16.60;51.10;;;;;;5150894;27;19919;-72
2022/11/26 10:40:23;;;;;;;;;;;17.00;50.30;;;;;;5164082;27;19926;-72
2022/11/26 10:43:09;;;;;;;;;;;17.40;49.70;;;;;;5185599;27;19927;-72
2022/11/26 10:45:37;;;;;;;;;;;17.80;49.00;;;;;;5177799;27;19987;-65
2022/11/26 10:48:20;;;;;;;;;;;18.30;48.10;;;;;;5170757;27;20355;-71
2022/11/26 10:51:04;;;;;;;;;;;18.90;47.00;;;;;;5171214;27;20302;-71
2022/11/26 10:53:45;;;;;;;;;;;19.70;45.80;;;;;;5152751;27;20249;-65
2022/11/26 10:56:15;;;;;;;;;;;20.40;44.40;;;;;;5171077;27;19919;-71
2022/11/26 10:58:41;;;;;;;;;;;21.10;43.40;;;;;;5170711;27;20311;-66
2022/11/26 11:01:08;;;;;;;;;;;21.60;42.50;;;;;;5152319;27;19923;-70
2022/11/26 11:03:37;;;;;;;;;;;22.00;41.80;;;;;;5170926;27;19925;-65
2022/11/26 11:08:58;;;;;;;;;;;22.70;40.70;;;;;;5109530;27;19912;-67
2022/11/26 11:11:25;;;;;;;;;;;22.90;40.20;;;;;;5109984;28;19943;-71
2022/11/26 11:13:51;;;;;;;;;;;23.20;40.20;;;;;;5108289;28;19923;-68
2022/11/26 11:16:23;;;;;;;;;;;23.40;39.50;;;;;;5108480;28;19920;-72
2022/11/26 11:18:50;;;;;;;;;;;23.70;39.10;;;;;;5107871;28;19920;-70
2022/11/26 11:21:17;;;;;;;;;;;23.80;38.90;;;;;;5107237;28;19927;-70
2022/11/26 11:23:42;;;;;;;;;;;23.90;38.50;;;;;;5108942;28;19920;-65
2022/11/26 11:28:51;;;;;;;;;;;24.10;38.10;;;;;;5110060;27;19916;-70
2022/11/26 11:31:18;;;;;;;;;;;24.00;38.20;;;;;;5109018;28;20384;-69
2022/11/26 11:33:44;;;;;;;;;;;24.00;38.40;;;;;;5109135;28;20371;-70
2022/11/26 11:38:56;;;;;;;;;;;24.00;38.40;;;;;;5130715;27;20116;-70
2022/11/26 11:41:42;;;;;;;;;;;23.90;38.50;;;;;;5130967;27;19926;-71
2022/11/26 11:47:02;;;;;;;;;;;23.80;38.60;;;;;;5089454;28;19913;-71
2022/11/26 11:49:39;;;;;;;;;;;23.70;38.60;;;;;;5088435;28;19924;-70
2022/11/26 11:52:12;;;;;;;;;;;23.50;38.80;;;;;;5089935;28;20265;-70
2022/11/26 11:54:45;;;;;;;;;;;23.40;39.10;;;;;;5088463;28;19920;-71
2022/11/26 11:57:31;;;;;;;;;;;23.20;39.30;;;;;;5088418;28;19924;-70
2022/11/26 12:00:17;;;;;;;;;;;23.00;39.70;;;;;;5089489;28;20327;-70
2022/11/26 12:02:54;;;;;;;;;;;22.70;40.10;;;;;;5088655;28;20246;-70
2022/11/26 12:05:27;;;;;;;;;;;22.50;40.50;;;;;;5088324;28;20346;-70
2022/11/26 12:08:02;;;;;;;;;;;22.30;40.80;;;;;;5089797;28;19934;-69
2022/11/26 12:10:35;;;;;;;;;;;22.10;41.10;;;;;;5089469;28;20003;-70
2022/11/26 12:13:01;;;;;;;;;;;21.90;41.40;;;;;;5089467;28;19967;-70
2022/11/26 12:18:27;;;;;;;;;;;21.60;42.00;;;;;;5110230;27;19912;-70
2022/11/26 12:20:54;;;;;;;;;;;21.30;42.30;;;;;;5108911;28;19927;-70
2022/11/26 12:23:24;;;;;;;;;;;21.20;42.70;;;;;;5109115;28;20015;-70
2022/11/26 12:25:52;;;;;;;;;;;20.90;42.90;;;;;;5108710;28;19920;-70
2022/11/26 12:28:23;;;;;;;;;;;20.80;43.30;;;;;;5108619;28;20429;-70
2022/11/26 12:30:54;;;;;;;;;;;20.70;43.60;;;;;;5108109;28;20367;-70
2022/11/26 12:33:26;;;;;;;;;;;20.50;44.00;;;;;;5109701;28;19920;-70
2022/11/26 12:35:54;;;;;;;;;;;20.40;44.30;;;;;;5109189;28;19924;-71
2022/11/26 12:41:08;;;;;;;;;;;20.20;44.90;;;;;;5110126;27;20471;-71
2022/11/26 12:43:54;;;;;;;;;;;20.00;44.90;;;;;;5108404;28;19948;-71
2022/11/26 12:51:46;;;;;;;;;;;19.70;45.50;;;;;;5089621;28;19913;-71
2022/11/26 12:56:56;;;;;;;;;;;19.60;45.70;;;;;;5089105;28;19913;-71
2022/11/26 12:59:28;;;;;;;;;;;19.50;45.80;;;;;;5088388;28;19920;-71
2022/11/26 13:01:53;;;;;;;;;;;19.50;46.10;;;;;;5088463;28;19920;-72
2022/11/26 13:04:20;;;;;;;;;;;19.40;46.30;;;;;;5088784;28;19966;-71
2022/11/26 13:12:15;;;;;;;;;;;19.10;46.70;;;;;;5109993;27;19912;-71
2022/11/26 13:17:27;;;;;;;;;;;18.90;47.00;;;;;;5089766;28;20369;-71
2022/11/26 13:19:59;;;;;;;;;;;18.80;47.20;;;;;;5088832;28;19924;-71
2022/11/26 13:22:36;;;;;;;;;;;18.80;47.40;;;;;;5088869;28;19921;-71
2022/11/26 13:25:21;;;;;;;;;;;18.60;47.50;;;;;;5088370;28;19954;-71
2022/11/26 13:30:36;;;;;;;;;;;18.50;47.90;;;;;;5089830;28;20406;-71
2022/11/26 13:33:14;;;;;;;;;;;18.40;48.10;;;;;;5087524;28;20272;-70
2022/11/26 13:38:35;;;;;;;;;;;18.20;48.50;;;;;;5127124;27;1876102;-71
2022/11/26 13:44:00;;;;;;;;;;;18.00;48.90;;;;;;5127465;27;1869816;-70
2022/11/26 13:46:28;;;;;;;;;;;17.90;49.10;;;;;;5174112;27;19947;-71
2022/11/26 13:48:57;;;;;;;;;;;17.90;49.40;;;;;;5174500;27;19975;-70
2022/11/26 13:54:22;;;;;;;;;;;17.70;49.80;;;;;;5127295;27;1868580;-70
2022/11/26 13:56:48;;;;;;;;;;;17.60;50.00;;;;;;5174606;27;19962;-70
2022/11/26 13:59:16;;;;;;;;;;;17.40;50.00;;;;;;5174577;27;20443;-70
2022/11/26 14:01:42;;;;;;;;;;;17.40;50.30;;;;;;5157762;27;20263;-70
2022/11/26 14:04:10;;;;;;;;;;;17.40;50.50;;;;;;5152958;27;20005;-70
2022/11/26 14:06:36;;;;;;;;;;;17.30;50.60;;;;;;5153657;27;19919;-70
2022/11/26 14:09:02;;;;;;;;;;;17.30;50.80;;;;;;5153424;27;19926;-70
2022/11/26 14:11:49;;;;;;;;;;;17.20;50.90;;;;;;5153152;27;20358;-70
2022/11/26 14:25:01;;;;;;;;;;;17.00;51.40;;;;;;5110240;27;19919;-70
2022/11/26 14:32:51;;;;;;;;;;;16.90;51.60;;;;;;5110149;27;19944;-70
2022/11/26 14:35:19;;;;;;;;;;;16.90;51.60;;;;;;5110154;28;19942;-71
2022/11/26 14:37:53;;;;;;;;;;;16.90;51.80;;;;;;5109171;28;20287;-70
2022/11/26 14:40:20;;;;;;;;;;;16.90;51.80;;;;;;5108793;28;19924;-70
2022/11/26 14:42:46;;;;;;;;;;;16.80;51.90;;;;;;5108877;28;19927;-71
2022/11/26 14:45:19;;;;;;;;;;;16.80;51.90;;;;;;5107912;28;19920;-70
2022/11/26 14:47:46;;;;;;;;;;;16.80;52.00;;;;;;5108797;28;19920;-71
2022/11/26 14:50:14;;;;;;;;;;;16.80;52.00;;;;;;5109792;28;20436;-71
2022/11/26 14:52:40;;;;;;;;;;;16.80;52.10;;;;;;5108529;28;19931;-71
2022/11/26 14:55:08;;;;;;;;;;;16.70;52.10;;;;;;5108872;28;20303;-70
2022/11/26 14:57:40;;;;;;;;;;;16.70;52.20;;;;;;5108905;28;20073;-70
2022/11/26 15:02:46;;;;;;;;;;;16.70;52.40;;;;;;5110287;27;19938;-70
2022/11/26 15:05:14;;;;;;;;;;;16.70;52.30;;;;;;5110278;28;19920;-70
2022/11/26 15:07:39;;;;;;;;;;;16.70;52.40;;;;;;5108906;28;19920;-70
2022/11/26 15:12:48;;;;;;;;;;;16.60;52.40;;;;;;5089863;28;19913;-70
2022/11/26 15:15:16;;;;;;;;;;;16.60;52.40;;;;;;5088519;28;19928;-70
2022/11/26 15:17:43;;;;;;;;;;;16.60;52.60;;;;;;5088567;28;20379;-70
2022/11/26 15:20:11;;;;;;;;;;;16.60;52.60;;;;;;5088790;28;19955;-70
2022/11/26 15:22:41;;;;;;;;;;;16.50;52.60;;;;;;5088418;28;19920;-70
2022/11/26 15:25:26;;;;;;;;;;;16.50;52.70;;;;;;5088677;28;19928;-70
2022/11/26 15:27:55;;;;;;;;;;;16.50;52.70;;;;;;5088100;28;20413;-70
2022/11/26 15:30:22;;;;;;;;;;;16.50;52.80;;;;;;5088042;28;20346;-71
2022/11/26 15:32:54;;;;;;;;;;;16.40;52.80;;;;;;5088405;28;20012;-70
2022/11/26 15:35:20;;;;;;;;;;;16.40;52.80;;;;;;5088400;28;19921;-70
2022/11/26 15:37:45;;;;;;;;;;;16.50;52.90;;;;;;5088378;28;20011;-71
2022/11/26 15:43:01;;;;;;;;;;;16.40;52.90;;;;;;5109581;27;19912;-71
2022/11/26 15:45:37;;;;;;;;;;;16.40;52.90;;;;;;5108607;28;20409;-71
2022/11/26 15:48:04;;;;;;;;;;;16.40;53.00;;;;;;5108892;28;19920;-70
2022/11/26 15:50:31;;;;;;;;;;;16.40;53.00;;;;;;5108828;28;19920;-70
2022/11/26 15:52:58;;;;;;;;;;;16.40;53.00;;;;;;5109861;28;19920;-71
2022/11/26 15:55:26;;;;;;;;;;;16.40;53.00;;;;;;5108778;28;19935;-70
2022/11/26 15:57:51;;;;;;;;;;;16.40;53.10;;;;;;5108936;28;19924;-70
2022/11/26 16:00:19;;;;;;;;;;;16.30;53.00;;;;;;5108928;28;19972;-70
2022/11/26 16:02:45;;;;;;;;;;;16.30;53.00;;;;;;5109698;28;19997;-70